sensor_id;sensor_type;location;lat;lon;timestamp;P1;durP1;ratioP1;P2;durP2;ratioP2
23310;SDS011;11828;51.508;18.118;2022-08-04T00:02:15;12.68;;;11.13;;
23310;SDS011;11828;51.508;18.118;2022-08-04T00:07:34;15.88;;;11.57;;
23310;SDS011;11828;51.508;18.118;2022-08-04T00:10:22;12.80;;;11.35;;
23310;SDS011;11828;51.508;18.118;2022-08-04T00:12:53;12.88;;;11.32;;
23310;SDS011;11828;51.508;18.118;2022-08-04T00:15:21;12.63;;;11.20;;
23310;SDS011;11828;51.508;18.118;2022-08-04T00:17:50;13.68;;;11.75;;
23310;SDS011;11828;51.508;18.118;2022-08-04T00:20:23;11.65;;;10.38;;
23310;SDS011;11828;51.508;18.118;2022-08-04T00:22:54;12.77;;;10.85;;
23310;SDS011;11828;51.508;18.118;2022-08-04T00:25:21;12.65;;;10.50;;
23310;SDS011;11828;51.508;18.118;2022-08-04T00:27:48;14.77;;;10.90;;
23310;SDS011;11828;51.508;18.118;2022-08-04T00:30:15;13.30;;;10.30;;
23310;SDS011;11828;51.508;18.118;2022-08-04T00:32:41;13.05;;;10.13;;
23310;SDS011;11828;51.508;18.118;2022-08-04T00:35:07;13.13;;;10.80;;
23310;SDS011;11828;51.508;18.118;2022-08-04T00:37:36;14.32;;;11.73;;
23310;SDS011;11828;51.508;18.118;2022-08-04T00:40:06;14.20;;;12.32;;
23310;SDS011;11828;51.508;18.118;2022-08-04T00:43:05;14.40;;;12.68;;
23310;SDS011;11828;51.508;18.118;2022-08-04T00:54:25;17.23;;;14.95;;
23310;SDS011;11828;51.508;18.118;2022-08-04T00:58:02;16.85;;;12.90;;
23310;SDS011;11828;51.508;18.118;2022-08-04T01:03:34;15.60;;;12.95;;
23310;SDS011;11828;51.508;18.118;2022-08-04T01:06:34;16.13;;;12.05;;
23310;SDS011;11828;51.508;18.118;2022-08-04T01:15:02;13.95;;;12.13;;
23310;SDS011;11828;51.508;18.118;2022-08-04T01:17:42;14.48;;;12.60;;
23310;SDS011;11828;51.508;18.118;2022-08-04T01:20:28;14.55;;;12.43;;
23310;SDS011;11828;51.508;18.118;2022-08-04T01:31:36;15.13;;;11.73;;
23310;SDS011;11828;51.508;18.118;2022-08-04T01:34:26;15.23;;;11.85;;
23310;SDS011;11828;51.508;18.118;2022-08-04T01:40:14;14.13;;;12.00;;
23310;SDS011;11828;51.508;18.118;2022-08-04T01:42:41;14.30;;;11.43;;
23310;SDS011;11828;51.508;18.118;2022-08-04T01:45:10;15.82;;;11.98;;
23310;SDS011;11828;51.508;18.118;2022-08-04T01:47:39;16.08;;;12.02;;
23310;SDS011;11828;51.508;18.118;2022-08-04T01:50:13;15.55;;;12.88;;
23310;SDS011;11828;51.508;18.118;2022-08-04T01:52:40;15.77;;;12.32;;
23310;SDS011;11828;51.508;18.118;2022-08-04T01:55:09;15.05;;;12.07;;
23310;SDS011;11828;51.508;18.118;2022-08-04T01:57:41;17.00;;;11.55;;
23310;SDS011;11828;51.508;18.118;2022-08-04T02:00:22;14.63;;;12.10;;
23310;SDS011;11828;51.508;18.118;2022-08-04T02:02:51;13.30;;;11.10;;
23310;SDS011;11828;51.508;18.118;2022-08-04T02:05:23;13.70;;;11.75;;
23310;SDS011;11828;51.508;18.118;2022-08-04T02:11:06;15.60;;;13.13;;
23310;SDS011;11828;51.508;18.118;2022-08-04T02:13:51;15.18;;;12.45;;
23310;SDS011;11828;51.508;18.118;2022-08-04T02:16:29;15.57;;;13.82;;
23310;SDS011;11828;51.508;18.118;2022-08-04T02:21:56;16.50;;;13.80;;
23310;SDS011;11828;51.508;18.118;2022-08-04T02:24:31;16.50;;;12.82;;
23310;SDS011;11828;51.508;18.118;2022-08-04T02:26:57;17.48;;;12.98;;
23310;SDS011;11828;51.508;18.118;2022-08-04T02:29:30;18.42;;;13.15;;
23310;SDS011;11828;51.508;18.118;2022-08-04T02:32:03;14.48;;;12.98;;
23310;SDS011;11828;51.508;18.118;2022-08-04T02:37:19;15.35;;;12.90;;
23310;SDS011;11828;51.508;18.118;2022-08-04T02:39:49;14.38;;;12.88;;
23310;SDS011;11828;51.508;18.118;2022-08-04T02:42:18;16.73;;;13.52;;
23310;SDS011;11828;51.508;18.118;2022-08-04T02:44:48;20.10;;;14.27;;
23310;SDS011;11828;51.508;18.118;2022-08-04T02:47:19;21.60;;;15.38;;
23310;SDS011;11828;51.508;18.118;2022-08-04T02:49:46;23.08;;;16.10;;
23310;SDS011;11828;51.508;18.118;2022-08-04T02:52:16;17.65;;;14.27;;
23310;SDS011;11828;51.508;18.118;2022-08-04T02:54:46;19.42;;;14.98;;
23310;SDS011;11828;51.508;18.118;2022-08-04T02:57:16;23.65;;;16.92;;
23310;SDS011;11828;51.508;18.118;2022-08-04T02:59:59;26.02;;;17.63;;
23310;SDS011;11828;51.508;18.118;2022-08-04T03:06:00;20.30;;;15.23;;
23310;SDS011;11828;51.508;18.118;2022-08-04T03:14:52;22.17;;;16.67;;
23310;SDS011;11828;51.508;18.118;2022-08-04T03:20:31;18.75;;;14.15;;
23310;SDS011;11828;51.508;18.118;2022-08-04T03:23:28;18.27;;;14.77;;
23310;SDS011;11828;51.508;18.118;2022-08-04T03:34:47;16.83;;;14.45;;
23310;SDS011;11828;51.508;18.118;2022-08-04T03:41:31;19.15;;;16.15;;
23310;SDS011;11828;51.508;18.118;2022-08-04T03:44:37;20.15;;;16.75;;
23310;SDS011;11828;51.508;18.118;2022-08-04T03:47:26;23.77;;;14.85;;
23310;SDS011;11828;51.508;18.118;2022-08-04T03:50:35;25.13;;;17.38;;
23310;SDS011;11828;51.508;18.118;2022-08-04T04:02:19;23.10;;;17.15;;
23310;SDS011;11828;51.508;18.118;2022-08-04T04:05:20;23.73;;;16.48;;
23310;SDS011;11828;51.508;18.118;2022-08-04T04:08:40;21.90;;;17.52;;
23310;SDS011;11828;51.508;18.118;2022-08-04T04:17:45;23.55;;;17.60;;
23310;SDS011;11828;51.508;18.118;2022-08-04T04:21:04;21.30;;;17.38;;
23310;SDS011;11828;51.508;18.118;2022-08-04T04:27:08;23.95;;;17.15;;
23310;SDS011;11828;51.508;18.118;2022-08-04T04:38:19;22.02;;;18.50;;
23310;SDS011;11828;51.508;18.118;2022-08-04T04:41:11;20.98;;;16.70;;
23310;SDS011;11828;51.508;18.118;2022-08-04T04:47:06;20.33;;;16.60;;
23310;SDS011;11828;51.508;18.118;2022-08-04T04:50:07;20.67;;;16.38;;
23310;SDS011;11828;51.508;18.118;2022-08-04T04:58:45;20.15;;;17.98;;
23310;SDS011;11828;51.508;18.118;2022-08-04T05:01:48;21.45;;;17.95;;
23310;SDS011;11828;51.508;18.118;2022-08-04T05:09:45;21.77;;;17.83;;
23310;SDS011;11828;51.508;18.118;2022-08-04T05:13:01;22.60;;;17.95;;
23310;SDS011;11828;51.508;18.118;2022-08-04T05:15:52;20.75;;;17.27;;
23310;SDS011;11828;51.508;18.118;2022-08-04T05:18:23;22.60;;;18.83;;
23310;SDS011;11828;51.508;18.118;2022-08-04T05:21:03;23.27;;;19.65;;
23310;SDS011;11828;51.508;18.118;2022-08-04T05:23:52;23.77;;;19.65;;
23310;SDS011;11828;51.508;18.118;2022-08-04T05:26:29;22.25;;;19.85;;
23310;SDS011;11828;51.508;18.118;2022-08-04T05:29:01;20.45;;;18.25;;
23310;SDS011;11828;51.508;18.118;2022-08-04T05:31:33;22.92;;;19.42;;
23310;SDS011;11828;51.508;18.118;2022-08-04T05:34:12;23.92;;;20.80;;
23310;SDS011;11828;51.508;18.118;2022-08-04T05:36:47;24.83;;;21.10;;
23310;SDS011;11828;51.508;18.118;2022-08-04T05:39:24;23.92;;;20.40;;
23310;SDS011;11828;51.508;18.118;2022-08-04T05:41:53;23.45;;;19.33;;
23310;SDS011;11828;51.508;18.118;2022-08-04T05:44:22;24.05;;;20.35;;
23310;SDS011;11828;51.508;18.118;2022-08-04T05:46:51;24.20;;;21.05;;
23310;SDS011;11828;51.508;18.118;2022-08-04T05:49:25;23.85;;;21.23;;
23310;SDS011;11828;51.508;18.118;2022-08-04T05:51:54;24.33;;;21.25;;
23310;SDS011;11828;51.508;18.118;2022-08-04T05:54:24;20.40;;;17.90;;
23310;SDS011;11828;51.508;18.118;2022-08-04T05:56:50;23.50;;;18.55;;
23310;SDS011;11828;51.508;18.118;2022-08-04T05:59:19;22.80;;;18.65;;
23310;SDS011;11828;51.508;18.118;2022-08-04T06:01:47;18.70;;;16.52;;
23310;SDS011;11828;51.508;18.118;2022-08-04T06:04:14;21.52;;;17.77;;
23310;SDS011;11828;51.508;18.118;2022-08-04T06:06:42;19.35;;;17.20;;
23310;SDS011;11828;51.508;18.118;2022-08-04T06:09:09;18.50;;;16.40;;
23310;SDS011;11828;51.508;18.118;2022-08-04T06:11:36;21.63;;;17.75;;
23310;SDS011;11828;51.508;18.118;2022-08-04T06:14:06;22.25;;;18.88;;
23310;SDS011;11828;51.508;18.118;2022-08-04T06:16:35;22.65;;;19.42;;
23310;SDS011;11828;51.508;18.118;2022-08-04T06:19:08;21.13;;;16.65;;
23310;SDS011;11828;51.508;18.118;2022-08-04T06:21:43;21.90;;;19.33;;
23310;SDS011;11828;51.508;18.118;2022-08-04T06:24:15;19.80;;;16.30;;
23310;SDS011;11828;51.508;18.118;2022-08-04T06:26:45;17.52;;;15.55;;
23310;SDS011;11828;51.508;18.118;2022-08-04T06:29:14;18.55;;;16.23;;
23310;SDS011;11828;51.508;18.118;2022-08-04T06:31:58;15.57;;;13.88;;
23310;SDS011;11828;51.508;18.118;2022-08-04T06:34:27;16.67;;;14.88;;
23310;SDS011;11828;51.508;18.118;2022-08-04T06:36:55;20.70;;;17.05;;
23310;SDS011;11828;51.508;18.118;2022-08-04T06:39:23;17.13;;;15.32;;
23310;SDS011;11828;51.508;18.118;2022-08-04T06:41:51;21.15;;;18.92;;
23310;SDS011;11828;51.508;18.118;2022-08-04T06:44:18;22.45;;;17.38;;
23310;SDS011;11828;51.508;18.118;2022-08-04T06:46:45;20.98;;;16.83;;
23310;SDS011;11828;51.508;18.118;2022-08-04T06:49:12;17.30;;;15.57;;
23310;SDS011;11828;51.508;18.118;2022-08-04T06:51:39;19.75;;;17.10;;
23310;SDS011;11828;51.508;18.118;2022-08-04T06:54:06;18.23;;;16.40;;
23310;SDS011;11828;51.508;18.118;2022-08-04T06:56:35;18.10;;;16.30;;
23310;SDS011;11828;51.508;18.118;2022-08-04T06:59:03;16.10;;;14.50;;
23310;SDS011;11828;51.508;18.118;2022-08-04T07:01:30;16.30;;;14.65;;
23310;SDS011;11828;51.508;18.118;2022-08-04T07:03:59;16.48;;;14.77;;
23310;SDS011;11828;51.508;18.118;2022-08-04T07:06:25;14.30;;;12.80;;
23310;SDS011;11828;51.508;18.118;2022-08-04T07:08:52;14.23;;;12.82;;
23310;SDS011;11828;51.508;18.118;2022-08-04T07:11:20;12.32;;;11.23;;
23310;SDS011;11828;51.508;18.118;2022-08-04T07:13:47;13.85;;;12.55;;
23310;SDS011;11828;51.508;18.118;2022-08-04T07:16:14;12.75;;;11.25;;
23310;SDS011;11828;51.508;18.118;2022-08-04T07:18:43;12.60;;;11.30;;
23310;SDS011;11828;51.508;18.118;2022-08-04T07:21:09;13.38;;;12.18;;
23310;SDS011;11828;51.508;18.118;2022-08-04T07:23:44;12.95;;;11.85;;
23310;SDS011;11828;51.508;18.118;2022-08-04T07:26:10;12.13;;;11.13;;
23310;SDS011;11828;51.508;18.118;2022-08-04T07:28:36;12.32;;;11.23;;
23310;SDS011;11828;51.508;18.118;2022-08-04T07:31:05;11.70;;;10.60;;
23310;SDS011;11828;51.508;18.118;2022-08-04T07:33:34;11.63;;;10.40;;
23310;SDS011;11828;51.508;18.118;2022-08-04T07:36:01;10.23;;;9.32;;
23310;SDS011;11828;51.508;18.118;2022-08-04T07:38:27;10.60;;;9.50;;
23310;SDS011;11828;51.508;18.118;2022-08-04T07:40:53;10.20;;;9.20;;
23310;SDS011;11828;51.508;18.118;2022-08-04T07:43:20;10.55;;;9.63;;
23310;SDS011;11828;51.508;18.118;2022-08-04T07:45:47;10.38;;;9.48;;
23310;SDS011;11828;51.508;18.118;2022-08-04T07:48:13;10.00;;;9.10;;
23310;SDS011;11828;51.508;18.118;2022-08-04T07:50:41;9.35;;;8.55;;
23310;SDS011;11828;51.508;18.118;2022-08-04T07:53:09;9.30;;;8.43;;
23310;SDS011;11828;51.508;18.118;2022-08-04T07:55:37;9.05;;;8.20;;
23310;SDS011;11828;51.508;18.118;2022-08-04T07:58:03;8.40;;;7.70;;
23310;SDS011;11828;51.508;18.118;2022-08-04T08:00:29;8.63;;;7.93;;
23310;SDS011;11828;51.508;18.118;2022-08-04T08:02:56;9.02;;;8.23;;
23310;SDS011;11828;51.508;18.118;2022-08-04T08:05:23;9.25;;;8.45;;
23310;SDS011;11828;51.508;18.118;2022-08-04T08:07:50;9.05;;;7.90;;
23310;SDS011;11828;51.508;18.118;2022-08-04T08:10:16;8.57;;;7.88;;
23310;SDS011;11828;51.508;18.118;2022-08-04T08:12:43;8.48;;;7.78;;
23310;SDS011;11828;51.508;18.118;2022-08-04T08:15:10;8.02;;;7.38;;
23310;SDS011;11828;51.508;18.118;2022-08-04T08:17:37;9.07;;;8.27;;
23310;SDS011;11828;51.508;18.118;2022-08-04T08:20:05;9.15;;;8.35;;
23310;SDS011;11828;51.508;18.118;2022-08-04T08:22:35;9.35;;;8.45;;
23310;SDS011;11828;51.508;18.118;2022-08-04T08:25:03;8.85;;;8.10;;
23310;SDS011;11828;51.508;18.118;2022-08-04T08:27:31;8.68;;;7.88;;
23310;SDS011;11828;51.508;18.118;2022-08-04T08:29:58;8.27;;;7.57;;
23310;SDS011;11828;51.508;18.118;2022-08-04T08:32:24;8.45;;;7.75;;
23310;SDS011;11828;51.508;18.118;2022-08-04T08:34:51;8.27;;;7.50;;
23310;SDS011;11828;51.508;18.118;2022-08-04T08:37:31;7.63;;;6.93;;
23310;SDS011;11828;51.508;18.118;2022-08-04T08:52:57;16.55;;;12.35;;
23310;SDS011;11828;51.508;18.118;2022-08-04T08:55:44;7.43;;;6.82;;
23310;SDS011;11828;51.508;18.118;2022-08-04T09:13:43;7.28;;;6.68;;
23310;SDS011;11828;51.508;18.118;2022-08-04T09:19:16;12.57;;;10.48;;
23310;SDS011;11828;51.508;18.118;2022-08-04T09:24:36;25.02;;;17.35;;
23310;SDS011;11828;51.508;18.118;2022-08-04T09:30:26;16.35;;;13.13;;
23310;SDS011;11828;51.508;18.118;2022-08-04T09:33:09;13.88;;;11.90;;
23310;SDS011;11828;51.508;18.118;2022-08-04T09:36:25;9.50;;;8.60;;
23310;SDS011;11828;51.508;18.118;2022-08-04T09:39:19;7.03;;;6.43;;
23310;SDS011;11828;51.508;18.118;2022-08-04T09:42:03;7.35;;;6.65;;
23310;SDS011;11828;51.508;18.118;2022-08-04T09:51:24;7.07;;;6.47;;
23310;SDS011;11828;51.508;18.118;2022-08-04T09:54:15;7.63;;;6.32;;
23310;SDS011;11828;51.508;18.118;2022-08-04T09:59:40;6.60;;;6.03;;
23310;SDS011;11828;51.508;18.118;2022-08-04T10:02:18;5.95;;;5.45;;
23310;SDS011;11828;51.508;18.118;2022-08-04T10:04:46;6.95;;;6.35;;
23310;SDS011;11828;51.508;18.118;2022-08-04T10:13:59;7.18;;;6.57;;
23310;SDS011;11828;51.508;18.118;2022-08-04T10:16:59;6.68;;;6.07;;
23310;SDS011;11828;51.508;18.118;2022-08-04T10:19:46;7.28;;;6.68;;
23310;SDS011;11828;51.508;18.118;2022-08-04T10:22:24;6.88;;;6.25;;
23310;SDS011;11828;51.508;18.118;2022-08-04T10:28:05;6.43;;;5.93;;
23310;SDS011;11828;51.508;18.118;2022-08-04T10:30:38;13.93;;;11.25;;
23310;SDS011;11828;51.508;18.118;2022-08-04T10:33:15;7.80;;;7.00;;
23310;SDS011;11828;51.508;18.118;2022-08-04T10:36:08;7.18;;;6.43;;
23310;SDS011;11828;51.508;18.118;2022-08-04T10:41:11;7.00;;;6.22;;
23310;SDS011;11828;51.508;18.118;2022-08-04T10:46:52;6.60;;;5.97;;
23310;SDS011;11828;51.508;18.118;2022-08-04T10:49:23;7.50;;;6.00;;
23310;SDS011;11828;51.508;18.118;2022-08-04T10:57:41;8.77;;;7.38;;
23310;SDS011;11828;51.508;18.118;2022-08-04T11:00:27;7.15;;;6.55;;
23310;SDS011;11828;51.508;18.118;2022-08-04T11:03:18;6.07;;;5.57;;
23310;SDS011;11828;51.508;18.118;2022-08-04T11:08:22;8.63;;;7.55;;
23310;SDS011;11828;51.508;18.118;2022-08-04T11:13:43;5.85;;;5.35;;
23310;SDS011;11828;51.508;18.118;2022-08-04T11:22:26;6.20;;;5.65;;
23310;SDS011;11828;51.508;18.118;2022-08-04T11:27:50;5.95;;;5.45;;
23310;SDS011;11828;51.508;18.118;2022-08-04T11:30:34;5.90;;;5.30;;
23310;SDS011;11828;51.508;18.118;2022-08-04T11:35:57;5.78;;;5.13;;
23310;SDS011;11828;51.508;18.118;2022-08-04T11:38:31;6.00;;;5.40;;
23310;SDS011;11828;51.508;18.118;2022-08-04T11:41:10;6.15;;;5.55;;
23310;SDS011;11828;51.508;18.118;2022-08-04T11:43:48;5.90;;;5.30;;
23310;SDS011;11828;51.508;18.118;2022-08-04T11:46:25;6.03;;;5.10;;
23310;SDS011;11828;51.508;18.118;2022-08-04T11:49:04;6.38;;;5.75;;
23310;SDS011;11828;51.508;18.118;2022-08-04T11:51:36;7.65;;;5.15;;
23310;SDS011;11828;51.508;18.118;2022-08-04T11:54:04;6.05;;;5.45;;
23310;SDS011;11828;51.508;18.118;2022-08-04T11:56:30;5.28;;;4.78;;
23310;SDS011;11828;51.508;18.118;2022-08-04T11:58:56;6.07;;;5.43;;
23310;SDS011;11828;51.508;18.118;2022-08-04T12:07:20;6.43;;;4.65;;
23310;SDS011;11828;51.508;18.118;2022-08-04T12:13:12;5.30;;;4.80;;
23310;SDS011;11828;51.508;18.118;2022-08-04T12:18:56;5.78;;;5.28;;
23310;SDS011;11828;51.508;18.118;2022-08-04T12:21:31;5.90;;;5.40;;
23310;SDS011;11828;51.508;18.118;2022-08-04T12:24:13;7.85;;;5.40;;
23310;SDS011;11828;51.508;18.118;2022-08-04T12:26:46;9.60;;;5.60;;
23310;SDS011;11828;51.508;18.118;2022-08-04T12:29:18;6.80;;;5.70;;
23310;SDS011;11828;51.508;18.118;2022-08-04T12:32:03;7.20;;;5.80;;
23310;SDS011;11828;51.508;18.118;2022-08-04T12:34:42;6.50;;;5.90;;
23310;SDS011;11828;51.508;18.118;2022-08-04T12:37:50;5.88;;;5.25;;
23310;SDS011;11828;51.508;18.118;2022-08-04T12:40:49;5.43;;;4.63;;
23310;SDS011;11828;51.508;18.118;2022-08-04T12:43:18;8.40;;;5.13;;
23310;SDS011;11828;51.508;18.118;2022-08-04T12:46:03;6.63;;;5.82;;
23310;SDS011;11828;51.508;18.118;2022-08-04T12:48:35;6.57;;;5.22;;
23310;SDS011;11828;51.508;18.118;2022-08-04T12:51:03;7.60;;;5.57;;
23310;SDS011;11828;51.508;18.118;2022-08-04T12:53:36;6.68;;;5.63;;
23310;SDS011;11828;51.508;18.118;2022-08-04T12:56:05;5.57;;;5.07;;
23310;SDS011;11828;51.508;18.118;2022-08-04T12:58:41;5.65;;;5.00;;
23310;SDS011;11828;51.508;18.118;2022-08-04T13:01:18;5.50;;;5.00;;
23310;SDS011;11828;51.508;18.118;2022-08-04T13:04:00;8.27;;;5.80;;
23310;SDS011;11828;51.508;18.118;2022-08-04T13:06:41;5.88;;;5.38;;
23310;SDS011;11828;51.508;18.118;2022-08-04T13:09:20;7.03;;;5.13;;
23310;SDS011;11828;51.508;18.118;2022-08-04T13:12:24;6.60;;;6.00;;
23310;SDS011;11828;51.508;18.118;2022-08-04T13:14:47;6.45;;;5.82;;
23310;SDS011;11828;51.508;18.118;2022-08-04T13:17:16;6.22;;;5.32;;
23310;SDS011;11828;51.508;18.118;2022-08-04T13:19:47;5.20;;;4.80;;
23310;SDS011;11828;51.508;18.118;2022-08-04T13:22:24;6.88;;;5.30;;
23310;SDS011;11828;51.508;18.118;2022-08-04T13:24:52;7.13;;;6.43;;
23310;SDS011;11828;51.508;18.118;2022-08-04T13:27:21;5.88;;;5.38;;
23310;SDS011;11828;51.508;18.118;2022-08-04T13:29:49;5.97;;;5.07;;
23310;SDS011;11828;51.508;18.118;2022-08-04T13:32:20;5.45;;;4.95;;
23310;SDS011;11828;51.508;18.118;2022-08-04T13:34:50;5.78;;;5.25;;
23310;SDS011;11828;51.508;18.118;2022-08-04T13:37:19;5.78;;;4.88;;
23310;SDS011;11828;51.508;18.118;2022-08-04T13:39:50;7.50;;;4.93;;
23310;SDS011;11828;51.508;18.118;2022-08-04T13:42:17;5.18;;;4.70;;
23310;SDS011;11828;51.508;18.118;2022-08-04T13:44:46;5.10;;;4.70;;
23310;SDS011;11828;51.508;18.118;2022-08-04T13:47:19;5.28;;;4.78;;
23310;SDS011;11828;51.508;18.118;2022-08-04T13:50:07;5.43;;;4.68;;
23310;SDS011;11828;51.508;18.118;2022-08-04T13:52:42;6.68;;;5.07;;
23310;SDS011;11828;51.508;18.118;2022-08-04T13:55:19;6.10;;;5.50;;
23310;SDS011;11828;51.508;18.118;2022-08-04T13:58:04;5.72;;;4.38;;
23310;SDS011;11828;51.508;18.118;2022-08-04T14:00:46;5.18;;;4.68;;
23310;SDS011;11828;51.508;18.118;2022-08-04T14:03:21;5.30;;;4.45;;
23310;SDS011;11828;51.508;18.118;2022-08-04T14:08:44;5.03;;;4.47;;
23310;SDS011;11828;51.508;18.118;2022-08-04T14:11:20;4.72;;;3.78;;
23310;SDS011;11828;51.508;18.118;2022-08-04T14:14:05;4.35;;;3.90;;
23310;SDS011;11828;51.508;18.118;2022-08-04T14:27:23;5.10;;;4.10;;
23310;SDS011;11828;51.508;18.118;2022-08-04T14:29:50;4.55;;;4.15;;
23310;SDS011;11828;51.508;18.118;2022-08-04T14:32:16;4.88;;;4.47;;
23310;SDS011;11828;51.508;18.118;2022-08-04T14:34:43;30.98;;;4.30;;
23310;SDS011;11828;51.508;18.118;2022-08-04T14:37:10;5.30;;;4.00;;
23310;SDS011;11828;51.508;18.118;2022-08-04T14:39:41;3.70;;;3.40;;
23310;SDS011;11828;51.508;18.118;2022-08-04T14:42:13;4.25;;;3.80;;
23310;SDS011;11828;51.508;18.118;2022-08-04T14:47:42;4.30;;;3.90;;
23310;SDS011;11828;51.508;18.118;2022-08-04T14:50:10;4.10;;;3.72;;
23310;SDS011;11828;51.508;18.118;2022-08-04T14:52:37;4.47;;;4.18;;
23310;SDS011;11828;51.508;18.118;2022-08-04T14:55:21;4.00;;;3.70;;
23310;SDS011;11828;51.508;18.118;2022-08-04T14:57:49;4.10;;;3.80;;
23310;SDS011;11828;51.508;18.118;2022-08-04T15:00:23;6.30;;;5.25;;
23310;SDS011;11828;51.508;18.118;2022-08-04T15:02:56;5.88;;;5.28;;
23310;SDS011;11828;51.508;18.118;2022-08-04T15:05:28;6.22;;;4.80;;
23310;SDS011;11828;51.508;18.118;2022-08-04T15:07:56;6.65;;;5.45;;
23310;SDS011;11828;51.508;18.118;2022-08-04T15:10:23;8.85;;;7.30;;
23310;SDS011;11828;51.508;18.118;2022-08-04T15:12:50;7.18;;;5.30;;
23310;SDS011;11828;51.508;18.118;2022-08-04T15:15:16;5.78;;;4.50;;
23310;SDS011;11828;51.508;18.118;2022-08-04T15:17:42;4.47;;;4.07;;
23310;SDS011;11828;51.508;18.118;2022-08-04T15:20:09;4.50;;;4.10;;
23310;SDS011;11828;51.508;18.118;2022-08-04T15:22:37;4.15;;;3.80;;
23310;SDS011;11828;51.508;18.118;2022-08-04T15:25:04;4.40;;;4.00;;
23310;SDS011;11828;51.508;18.118;2022-08-04T15:27:32;4.47;;;4.07;;
23310;SDS011;11828;51.508;18.118;2022-08-04T15:30:04;9.88;;;4.00;;
23310;SDS011;11828;51.508;18.118;2022-08-04T15:32:37;4.60;;;4.07;;
23310;SDS011;11828;51.508;18.118;2022-08-04T15:35:09;4.90;;;4.40;;
23310;SDS011;11828;51.508;18.118;2022-08-04T15:45:49;4.30;;;3.95;;
23310;SDS011;11828;51.508;18.118;2022-08-04T15:53:25;4.68;;;4.28;;
23310;SDS011;11828;51.508;18.118;2022-08-04T15:56:41;4.60;;;4.20;;
23310;SDS011;11828;51.508;18.118;2022-08-04T15:58:57;4.30;;;4.00;;
23310;SDS011;11828;51.508;18.118;2022-08-04T16:01:23;4.57;;;4.18;;
23310;SDS011;11828;51.508;18.118;2022-08-04T16:03:52;4.32;;;4.03;;
23310;SDS011;11828;51.508;18.118;2022-08-04T16:16:26;5.80;;;5.30;;
23310;SDS011;11828;51.508;18.118;2022-08-04T16:22:30;5.72;;;5.22;;
23310;SDS011;11828;51.508;18.118;2022-08-04T16:25:05;4.90;;;4.50;;
23310;SDS011;11828;51.508;18.118;2022-08-04T16:27:37;5.30;;;4.80;;
23310;SDS011;11828;51.508;18.118;2022-08-04T16:30:07;7.60;;;6.43;;
23310;SDS011;11828;51.508;18.118;2022-08-04T16:32:43;8.77;;;7.32;;
23310;SDS011;11828;51.508;18.118;2022-08-04T16:35:19;7.63;;;6.57;;
23310;SDS011;11828;51.508;18.118;2022-08-04T16:37:51;6.38;;;5.68;;
23310;SDS011;11828;51.508;18.118;2022-08-04T16:40:40;6.80;;;5.57;;
23310;SDS011;11828;51.508;18.118;2022-08-04T16:48:27;5.60;;;5.15;;
23310;SDS011;11828;51.508;18.118;2022-08-04T16:53:42;5.80;;;5.28;;
23310;SDS011;11828;51.508;18.118;2022-08-04T16:56:11;4.93;;;4.50;;
23310;SDS011;11828;51.508;18.118;2022-08-04T16:58:39;5.15;;;4.60;;
23310;SDS011;11828;51.508;18.118;2022-08-04T17:01:06;4.60;;;4.22;;
23310;SDS011;11828;51.508;18.118;2022-08-04T17:03:35;5.38;;;4.80;;
23310;SDS011;11828;51.508;18.118;2022-08-04T17:06:03;6.78;;;4.63;;
23310;SDS011;11828;51.508;18.118;2022-08-04T17:08:39;6.80;;;4.90;;
23310;SDS011;11828;51.508;18.118;2022-08-04T17:11:10;8.32;;;4.72;;
23310;SDS011;11828;51.508;18.118;2022-08-04T17:13:38;7.22;;;4.43;;
23310;SDS011;11828;51.508;18.118;2022-08-04T17:16:07;8.00;;;4.60;;
23310;SDS011;11828;51.508;18.118;2022-08-04T17:18:39;5.85;;;4.25;;
23310;SDS011;11828;51.508;18.118;2022-08-04T17:21:11;7.22;;;5.20;;
23310;SDS011;11828;51.508;18.118;2022-08-04T17:23:47;6.38;;;5.00;;
23310;SDS011;11828;51.508;18.118;2022-08-04T17:26:26;6.18;;;5.30;;
23310;SDS011;11828;51.508;18.118;2022-08-04T17:28:57;6.50;;;4.95;;
23310;SDS011;11828;51.508;18.118;2022-08-04T17:31:26;5.03;;;4.50;;
23310;SDS011;11828;51.508;18.118;2022-08-04T17:33:55;5.47;;;4.97;;
23310;SDS011;11828;51.508;18.118;2022-08-04T17:36:25;5.25;;;4.75;;
23310;SDS011;11828;51.508;18.118;2022-08-04T17:38:56;5.25;;;4.75;;
23310;SDS011;11828;51.508;18.118;2022-08-04T17:41:26;5.80;;;4.95;;
23310;SDS011;11828;51.508;18.118;2022-08-04T17:43:56;5.40;;;4.90;;
23310;SDS011;11828;51.508;18.118;2022-08-04T17:49:03;7.55;;;4.25;;
23310;SDS011;11828;51.508;18.118;2022-08-04T17:51:56;5.25;;;4.75;;
23310;SDS011;11828;51.508;18.118;2022-08-04T17:56:52;5.65;;;4.95;;
23310;SDS011;11828;51.508;18.118;2022-08-04T17:59:22;6.22;;;4.90;;
23310;SDS011;11828;51.508;18.118;2022-08-04T18:02:08;5.18;;;4.47;;
23310;SDS011;11828;51.508;18.118;2022-08-04T18:07:11;5.57;;;4.68;;
23310;SDS011;11828;51.508;18.118;2022-08-04T18:09:40;5.88;;;4.85;;
23310;SDS011;11828;51.508;18.118;2022-08-04T18:12:28;6.47;;;5.07;;
23310;SDS011;11828;51.508;18.118;2022-08-04T18:20:08;6.20;;;5.13;;
23310;SDS011;11828;51.508;18.118;2022-08-04T18:22:38;5.30;;;4.75;;
23310;SDS011;11828;51.508;18.118;2022-08-04T18:25:09;5.40;;;4.90;;
23310;SDS011;11828;51.508;18.118;2022-08-04T18:27:51;8.00;;;4.82;;
23310;SDS011;11828;51.508;18.118;2022-08-04T18:30:21;15.85;;;5.18;;
23310;SDS011;11828;51.508;18.118;2022-08-04T18:32:49;6.25;;;5.45;;
23310;SDS011;11828;51.508;18.118;2022-08-04T18:35:18;5.72;;;5.10;;
23310;SDS011;11828;51.508;18.118;2022-08-04T18:37:44;5.22;;;4.72;;
23310;SDS011;11828;51.508;18.118;2022-08-04T18:40:10;5.72;;;5.22;;
23310;SDS011;11828;51.508;18.118;2022-08-04T18:42:37;9.02;;;5.45;;
23310;SDS011;11828;51.508;18.118;2022-08-04T18:45:04;7.10;;;5.47;;
23310;SDS011;11828;51.508;18.118;2022-08-04T18:47:34;5.70;;;5.20;;
23310;SDS011;11828;51.508;18.118;2022-08-04T18:49:59;6.28;;;5.68;;
23310;SDS011;11828;51.508;18.118;2022-08-04T18:52:25;7.97;;;5.28;;
23310;SDS011;11828;51.508;18.118;2022-08-04T18:54:52;5.85;;;5.18;;
23310;SDS011;11828;51.508;18.118;2022-08-04T18:57:19;7.95;;;5.30;;
23310;SDS011;11828;51.508;18.118;2022-08-04T18:59:46;7.05;;;5.75;;
23310;SDS011;11828;51.508;18.118;2022-08-04T19:02:13;7.80;;;5.65;;
23310;SDS011;11828;51.508;18.118;2022-08-04T19:04:39;5.80;;;5.20;;
23310;SDS011;11828;51.508;18.118;2022-08-04T19:07:06;5.50;;;5.00;;
23310;SDS011;11828;51.508;18.118;2022-08-04T19:09:34;8.25;;;5.90;;
23310;SDS011;11828;51.508;18.118;2022-08-04T19:11:59;6.68;;;6.07;;
23310;SDS011;11828;51.508;18.118;2022-08-04T19:14:25;8.20;;;5.95;;
23310;SDS011;11828;51.508;18.118;2022-08-04T19:16:52;6.25;;;5.65;;
23310;SDS011;11828;51.508;18.118;2022-08-04T19:19:17;9.68;;;5.82;;
23310;SDS011;11828;51.508;18.118;2022-08-04T19:21:44;5.82;;;5.13;;
23310;SDS011;11828;51.508;18.118;2022-08-04T19:24:10;7.45;;;6.18;;
23310;SDS011;11828;51.508;18.118;2022-08-04T19:26:38;8.00;;;5.95;;
23310;SDS011;11828;51.508;18.118;2022-08-04T19:29:04;6.70;;;6.10;;
23310;SDS011;11828;51.508;18.118;2022-08-04T19:31:31;7.15;;;6.45;;
23310;SDS011;11828;51.508;18.118;2022-08-04T19:33:57;7.93;;;5.82;;